Terminal Aerodrome Forecast
Issued by NWS Charleston, WV

Current Version | Previous Version | Graphics & Text | Print | Product List | Glossary On
Versions: 1 2 3 4 5 6 7 8 9 10 11 12 13 14 15 16 17 18 19 20
643
FTUS41 KRLX 241500 AAA
TAFCRW
TAF AMD
KCRW 241500Z 2415/2512 24005KT P6SM BKN025
     FM241700 24005KT P6SM SCT035
     FM241800 25008KT P6SM BKN050
     FM242300 30005KT P6SM SCT250
     FM250600 36003KT P6SM VCFG SCT010=

USA.gov is the U.S. government's official web portal to all federal, state and local government web resources and services.